sensor_id;sensor_type;location;lat;lon;timestamp;pressure;altitude;pressure_sealevel;temperature;humidity
51227;BME280;42714;48.260;10.980;2023-08-12T00:04:14;974.4;;;19.1;100.0
51227;BME280;42714;48.260;10.980;2023-08-12T00:09:15;974.3;;;19.0;100.0
51227;BME280;42714;48.260;10.980;2023-08-12T00:14:16;974.3;;;19.0;100.0
51227;BME280;42714;48.260;10.980;2023-08-12T00:19:17;974.3;;;19.0;100.0
51227;BME280;42714;48.260;10.980;2023-08-12T00:24:18;974.3;;;18.8;100.0
51227;BME280;42714;48.260;10.980;2023-08-12T00:29:19;974.3;;;18.6;100.0
51227;BME280;42714;48.260;10.980;2023-08-12T00:34:20;974.3;;;18.5;100.0
51227;BME280;42714;48.260;10.980;2023-08-12T00:39:21;974.2;;;18.5;100.0
51227;BME280;42714;48.260;10.980;2023-08-12T00:44:22;974.2;;;18.3;100.0
51227;BME280;42714;48.260;10.980;2023-08-12T00:49:23;974.2;;;18.2;100.0
51227;BME280;42714;48.260;10.980;2023-08-12T00:54:24;974.2;;;18.1;100.0
51227;BME280;42714;48.260;10.980;2023-08-12T00:59:25;974.2;;;18.0;100.0
51227;BME280;42714;48.260;10.980;2023-08-12T01:04:27;974.1;;;18.0;100.0
51227;BME280;42714;48.260;10.980;2023-08-12T01:09:27;974.1;;;17.9;100.0
51227;BME280;42714;48.260;10.980;2023-08-12T01:19:33;974.0;;;17.7;100.0
51227;BME280;42714;48.260;10.980;2023-08-12T01:24:34;973.9;;;17.5;100.0
51227;BME280;42714;48.260;10.980;2023-08-12T01:29:32;973.8;;;17.4;100.0
51227;BME280;42714;48.260;10.980;2023-08-12T01:34:36;973.8;;;17.3;100.0
51227;BME280;42714;48.260;10.980;2023-08-12T01:39:33;973.8;;;17.3;100.0
51227;BME280;42714;48.260;10.980;2023-08-12T01:44:34;973.7;;;17.1;100.0
51227;BME280;42714;48.260;10.980;2023-08-12T01:49:35;973.7;;;17.1;100.0
51227;BME280;42714;48.260;10.980;2023-08-12T01:54:36;973.7;;;17.0;100.0
51227;BME280;42714;48.260;10.980;2023-08-12T01:59:38;973.7;;;17.0;100.0
51227;BME280;42714;48.260;10.980;2023-08-12T02:04:39;973.6;;;16.9;100.0
51227;BME280;42714;48.260;10.980;2023-08-12T02:09:39;973.6;;;16.9;100.0
51227;BME280;42714;48.260;10.980;2023-08-12T02:14:40;973.6;;;16.9;100.0
51227;BME280;42714;48.260;10.980;2023-08-12T02:19:41;973.6;;;16.9;100.0
51227;BME280;42714;48.260;10.980;2023-08-12T02:24:42;973.6;;;16.9;100.0
51227;BME280;42714;48.260;10.980;2023-08-12T02:29:43;973.6;;;16.9;100.0
51227;BME280;42714;48.260;10.980;2023-08-12T02:34:44;973.6;;;16.8;100.0
51227;BME280;42714;48.260;10.980;2023-08-12T02:39:45;973.6;;;16.9;100.0
51227;BME280;42714;48.260;10.980;2023-08-12T02:44:46;973.5;;;16.8;100.0
51227;BME280;42714;48.260;10.980;2023-08-12T02:49:47;973.5;;;16.8;100.0
51227;BME280;42714;48.260;10.980;2023-08-12T02:54:49;973.5;;;16.7;100.0
51227;BME280;42714;48.260;10.980;2023-08-12T02:59:49;973.4;;;16.7;100.0
51227;BME280;42714;48.260;10.980;2023-08-12T03:04:51;973.4;;;16.7;100.0
51227;BME280;42714;48.260;10.980;2023-08-12T03:09:51;973.3;;;16.5;100.0
51227;BME280;42714;48.260;10.980;2023-08-12T03:14:52;973.4;;;16.4;100.0
51227;BME280;42714;48.260;10.980;2023-08-12T03:29:56;973.4;;;16.2;100.0
51227;BME280;42714;48.260;10.980;2023-08-12T03:34:57;973.4;;;16.2;100.0
51227;BME280;42714;48.260;10.980;2023-08-12T03:39:58;973.5;;;16.1;100.0
51227;BME280;42714;48.260;10.980;2023-08-12T03:44:59;973.5;;;16.0;100.0
51227;BME280;42714;48.260;10.980;2023-08-12T03:50:00;973.5;;;15.9;100.0
51227;BME280;42714;48.260;10.980;2023-08-12T03:55:01;973.5;;;15.9;100.0
51227;BME280;42714;48.260;10.980;2023-08-12T04:00:02;973.4;;;15.9;100.0
51227;BME280;42714;48.260;10.980;2023-08-12T04:05:03;973.5;;;15.9;100.0
51227;BME280;42714;48.260;10.980;2023-08-12T04:25:07;973.4;;;16.0;100.0
51227;BME280;42714;48.260;10.980;2023-08-12T04:30:09;973.5;;;16.1;100.0
51227;BME280;42714;48.260;10.980;2023-08-12T04:35:09;973.5;;;16.1;100.0
51227;BME280;42714;48.260;10.980;2023-08-12T04:40:10;973.4;;;16.2;100.0
51227;BME280;42714;48.260;10.980;2023-08-12T04:45:11;973.4;;;16.3;100.0
51227;BME280;42714;48.260;10.980;2023-08-12T04:50:12;973.3;;;16.5;100.0
51227;BME280;42714;48.260;10.980;2023-08-12T04:55:13;973.3;;;16.7;100.0
51227;BME280;42714;48.260;10.980;2023-08-12T05:00:14;973.4;;;17.0;100.0
51227;BME280;42714;48.260;10.980;2023-08-12T05:05:15;973.4;;;17.5;100.0
51227;BME280;42714;48.260;10.980;2023-08-12T05:10:16;973.3;;;18.3;100.0
51227;BME280;42714;48.260;10.980;2023-08-12T05:15:17;973.3;;;18.8;100.0
51227;BME280;42714;48.260;10.980;2023-08-12T05:20:18;973.3;;;19.1;100.0
51227;BME280;42714;48.260;10.980;2023-08-12T05:25:19;973.2;;;20.0;100.0
51227;BME280;42714;48.260;10.980;2023-08-12T05:30:20;973.2;;;21.5;100.0
51227;BME280;42714;48.260;10.980;2023-08-12T05:35:21;973.1;;;22.1;100.0
51227;BME280;42714;48.260;10.980;2023-08-12T05:40:22;973.2;;;22.6;100.0
51227;BME280;42714;48.260;10.980;2023-08-12T05:45:23;973.2;;;22.1;100.0
51227;BME280;42714;48.260;10.980;2023-08-12T05:50:24;973.3;;;21.5;100.0
51227;BME280;42714;48.260;10.980;2023-08-12T05:55:25;973.2;;;21.0;100.0
51227;BME280;42714;48.260;10.980;2023-08-12T06:00:26;973.2;;;21.5;100.0
51227;BME280;42714;48.260;10.980;2023-08-12T06:05:27;973.1;;;23.5;100.0
51227;BME280;42714;48.260;10.980;2023-08-12T06:10:28;973.1;;;25.3;100.0
51227;BME280;42714;48.260;10.980;2023-08-12T06:15:29;972.9;;;26.5;100.0
51227;BME280;42714;48.260;10.980;2023-08-12T06:20:30;972.9;;;28.0;100.0
51227;BME280;42714;48.260;10.980;2023-08-12T06:25:31;972.8;;;29.1;83.4
51227;BME280;42714;48.260;10.980;2023-08-12T06:30:32;972.8;;;30.3;71.8
51227;BME280;42714;48.260;10.980;2023-08-12T06:35:33;972.7;;;31.4;56.2
51227;BME280;42714;48.260;10.980;2023-08-12T06:40:34;972.8;;;31.7;54.3
51227;BME280;42714;48.260;10.980;2023-08-12T06:45:35;972.8;;;32.0;52.3
51227;BME280;42714;48.260;10.980;2023-08-12T06:50:36;972.8;;;31.1;60.6
51227;BME280;42714;48.260;10.980;2023-08-12T06:55:43;972.8;;;30.4;73.0
51227;BME280;42714;48.260;10.980;2023-08-12T07:00:38;972.8;;;30.3;75.9
51227;BME280;42714;48.260;10.980;2023-08-12T07:05:39;972.8;;;30.6;72.4
51227;BME280;42714;48.260;10.980;2023-08-12T07:10:40;972.8;;;31.3;64.3
51227;BME280;42714;48.260;10.980;2023-08-12T07:15:41;972.8;;;31.4;63.1
51227;BME280;42714;48.260;10.980;2023-08-12T07:20:42;972.9;;;31.8;63.8
51227;BME280;42714;48.260;10.980;2023-08-12T07:25:45;972.8;;;31.1;66.1
51227;BME280;42714;48.260;10.980;2023-08-12T07:30:44;972.8;;;31.0;66.3
51227;BME280;42714;48.260;10.980;2023-08-12T07:35:45;972.9;;;31.0;73.0
51227;BME280;42714;48.260;10.980;2023-08-12T07:40:46;972.9;;;31.6;70.3
51227;BME280;42714;48.260;10.980;2023-08-12T07:50:54;972.9;;;32.1;61.3
51227;BME280;42714;48.260;10.980;2023-08-12T07:55:49;972.9;;;33.1;47.6
51227;BME280;42714;48.260;10.980;2023-08-12T08:00:52;972.9;;;33.4;45.7
51227;BME280;42714;48.260;10.980;2023-08-12T08:05:51;972.9;;;32.8;44.1
51227;BME280;42714;48.260;10.980;2023-08-12T08:10:52;973.0;;;32.6;47.6
51227;BME280;42714;48.260;10.980;2023-08-12T08:15:53;973.0;;;32.2;48.1
51227;BME280;42714;48.260;10.980;2023-08-12T08:20:54;973.0;;;31.9;52.1
51227;BME280;42714;48.260;10.980;2023-08-12T08:25:55;972.9;;;32.2;49.2
51227;BME280;42714;48.260;10.980;2023-08-12T08:30:56;972.9;;;33.4;44.0
51227;BME280;42714;48.260;10.980;2023-08-12T08:35:57;972.9;;;33.7;47.7
51227;BME280;42714;48.260;10.980;2023-08-12T08:40:58;973.0;;;33.5;47.2
51227;BME280;42714;48.260;10.980;2023-08-12T08:45:59;973.0;;;32.8;52.4
51227;BME280;42714;48.260;10.980;2023-08-12T08:51:00;973.0;;;32.0;62.0
51227;BME280;42714;48.260;10.980;2023-08-12T08:56:01;973.0;;;32.0;59.1
51227;BME280;42714;48.260;10.980;2023-08-12T09:01:02;973.0;;;32.3;58.7
51227;BME280;42714;48.260;10.980;2023-08-12T09:06:03;973.0;;;32.2;56.6
51227;BME280;42714;48.260;10.980;2023-08-12T09:11:04;973.0;;;32.4;52.3
51227;BME280;42714;48.260;10.980;2023-08-12T09:16:05;973.0;;;32.7;53.5
51227;BME280;42714;48.260;10.980;2023-08-12T09:21:06;972.9;;;33.1;52.5
51227;BME280;42714;48.260;10.980;2023-08-12T09:26:11;972.9;;;33.0;49.5
51227;BME280;42714;48.260;10.980;2023-08-12T09:31:08;972.9;;;33.3;47.9
51227;BME280;42714;48.260;10.980;2023-08-12T09:36:09;972.8;;;35.0;44.7
51227;BME280;42714;48.260;10.980;2023-08-12T09:41:10;972.8;;;36.3;37.3
51227;BME280;42714;48.260;10.980;2023-08-12T09:46:11;972.8;;;36.2;37.3
51227;BME280;42714;48.260;10.980;2023-08-12T09:51:12;972.8;;;36.6;38.9
51227;BME280;42714;48.260;10.980;2023-08-12T09:56:13;972.8;;;38.1;33.4
51227;BME280;42714;48.260;10.980;2023-08-12T10:01:15;972.8;;;38.6;32.5
51227;BME280;42714;48.260;10.980;2023-08-12T10:06:15;972.7;;;38.9;30.4
51227;BME280;42714;48.260;10.980;2023-08-12T10:11:16;972.7;;;38.8;29.8
51227;BME280;42714;48.260;10.980;2023-08-12T10:16:17;972.7;;;38.7;30.4
51227;BME280;42714;48.260;10.980;2023-08-12T10:21:18;972.6;;;40.7;27.9
51227;BME280;42714;48.260;10.980;2023-08-12T10:26:19;972.6;;;41.2;27.4
51227;BME280;42714;48.260;10.980;2023-08-12T10:31:20;972.6;;;41.5;26.6
51227;BME280;42714;48.260;10.980;2023-08-12T10:36:21;972.5;;;42.7;23.5
51227;BME280;42714;48.260;10.980;2023-08-12T10:41:23;972.4;;;42.5;23.8
51227;BME280;42714;48.260;10.980;2023-08-12T10:46:28;972.4;;;43.3;24.2
51227;BME280;42714;48.260;10.980;2023-08-12T10:56:25;972.3;;;44.3;22.4
51227;BME280;42714;48.260;10.980;2023-08-12T11:01:26;972.3;;;45.1;19.9
51227;BME280;42714;48.260;10.980;2023-08-12T11:06:27;972.3;;;44.0;21.2
51227;BME280;42714;48.260;10.980;2023-08-12T11:11:28;972.2;;;42.5;23.6
51227;BME280;42714;48.260;10.980;2023-08-12T11:16:34;972.1;;;44.4;21.8
51227;BME280;42714;48.260;10.980;2023-08-12T11:21:30;972.0;;;45.3;19.6
51227;BME280;42714;48.260;10.980;2023-08-12T11:26:31;971.9;;;45.7;20.3
51227;BME280;42714;48.260;10.980;2023-08-12T11:31:33;971.9;;;45.3;20.5
51227;BME280;42714;48.260;10.980;2023-08-12T11:36:33;971.9;;;46.2;19.6
51227;BME280;42714;48.260;10.980;2023-08-12T11:41:34;971.9;;;45.7;20.5
51227;BME280;42714;48.260;10.980;2023-08-12T11:46:35;972.0;;;42.6;23.7
51227;BME280;42714;48.260;10.980;2023-08-12T11:51:36;972.0;;;40.7;26.1
51227;BME280;42714;48.260;10.980;2023-08-12T11:56:37;972.1;;;39.0;27.8
51227;BME280;42714;48.260;10.980;2023-08-12T12:01:38;972.1;;;37.8;29.6
51227;BME280;42714;48.260;10.980;2023-08-12T12:06:39;972.0;;;36.3;32.1
51227;BME280;42714;48.260;10.980;2023-08-12T12:11:41;972.1;;;35.4;34.1
51227;BME280;42714;48.260;10.980;2023-08-12T12:16:42;972.0;;;34.9;36.6
51227;BME280;42714;48.260;10.980;2023-08-12T12:21:43;972.1;;;34.1;39.5
51227;BME280;42714;48.260;10.980;2023-08-12T12:26:44;972.1;;;34.1;41.8
51227;BME280;42714;48.260;10.980;2023-08-12T12:31:44;972.0;;;34.6;42.0
51227;BME280;42714;48.260;10.980;2023-08-12T12:36:45;971.8;;;35.9;37.5
51227;BME280;42714;48.260;10.980;2023-08-12T12:41:46;971.8;;;36.3;36.3
51227;BME280;42714;48.260;10.980;2023-08-12T12:46:47;971.8;;;39.0;32.6
51227;BME280;42714;48.260;10.980;2023-08-12T12:51:48;971.7;;;41.8;25.0
51227;BME280;42714;48.260;10.980;2023-08-12T12:56:49;971.7;;;42.1;25.3
51227;BME280;42714;48.260;10.980;2023-08-12T13:01:50;971.7;;;42.5;24.2
51227;BME280;42714;48.260;10.980;2023-08-12T13:06:51;971.7;;;42.0;26.1
51227;BME280;42714;48.260;10.980;2023-08-12T13:11:52;971.7;;;42.6;24.0
51227;BME280;42714;48.260;10.980;2023-08-12T13:16:53;971.6;;;42.6;25.2
51227;BME280;42714;48.260;10.980;2023-08-12T13:21:54;971.6;;;42.1;26.6
51227;BME280;42714;48.260;10.980;2023-08-12T13:26:55;971.6;;;41.0;28.1
51227;BME280;42714;48.260;10.980;2023-08-12T13:31:56;971.7;;;39.6;29.8
51227;BME280;42714;48.260;10.980;2023-08-12T13:36:57;971.6;;;40.5;28.2
51227;BME280;42714;48.260;10.980;2023-08-12T13:41:58;971.5;;;41.0;28.8
51227;BME280;42714;48.260;10.980;2023-08-12T13:46:59;971.5;;;39.4;31.3
51227;BME280;42714;48.260;10.980;2023-08-12T13:52:00;971.7;;;37.6;32.8
51227;BME280;42714;48.260;10.980;2023-08-12T13:57:02;971.7;;;35.9;35.2
51227;BME280;42714;48.260;10.980;2023-08-12T14:02:02;971.9;;;34.2;38.3
51227;BME280;42714;48.260;10.980;2023-08-12T14:07:04;971.9;;;32.8;42.3
51227;BME280;42714;48.260;10.980;2023-08-12T14:12:05;971.9;;;31.9;46.2
51227;BME280;42714;48.260;10.980;2023-08-12T14:17:05;971.9;;;31.1;56.4
51227;BME280;42714;48.260;10.980;2023-08-12T14:22:06;972.0;;;30.8;65.8
51227;BME280;42714;48.260;10.980;2023-08-12T14:27:07;972.0;;;30.6;67.2
51227;BME280;42714;48.260;10.980;2023-08-12T14:32:08;972.1;;;30.5;71.8
51227;BME280;42714;48.260;10.980;2023-08-12T14:37:09;972.1;;;30.8;61.0
51227;BME280;42714;48.260;10.980;2023-08-12T14:42:10;972.0;;;31.2;57.4
51227;BME280;42714;48.260;10.980;2023-08-12T14:47:11;972.0;;;31.8;53.4
51227;BME280;42714;48.260;10.980;2023-08-12T14:57:13;972.0;;;33.0;48.8
51227;BME280;42714;48.260;10.980;2023-08-12T15:02:14;971.9;;;35.3;38.8
51227;BME280;42714;48.260;10.980;2023-08-12T15:07:15;971.7;;;36.4;34.4
51227;BME280;42714;48.260;10.980;2023-08-12T15:12:16;971.8;;;35.5;36.5
51227;BME280;42714;48.260;10.980;2023-08-12T15:17:17;971.7;;;34.8;36.2
51227;BME280;42714;48.260;10.980;2023-08-12T15:22:18;971.9;;;33.8;40.4
51227;BME280;42714;48.260;10.980;2023-08-12T15:27:19;971.8;;;33.3;42.8
51227;BME280;42714;48.260;10.980;2023-08-12T15:32:20;971.7;;;32.8;44.0
51227;BME280;42714;48.260;10.980;2023-08-12T15:37:21;971.7;;;31.9;49.8
51227;BME280;42714;48.260;10.980;2023-08-12T15:42:22;971.6;;;31.3;52.6
51227;BME280;42714;48.260;10.980;2023-08-12T15:47:23;971.6;;;30.9;58.2
51227;BME280;42714;48.260;10.980;2023-08-12T15:52:24;971.5;;;30.6;64.2
51227;BME280;42714;48.260;10.980;2023-08-12T15:57:25;971.5;;;30.0;66.3
51227;BME280;42714;48.260;10.980;2023-08-12T16:02:26;971.4;;;29.6;74.6
51227;BME280;42714;48.260;10.980;2023-08-12T16:07:27;971.3;;;29.3;80.3
51227;BME280;42714;48.260;10.980;2023-08-12T16:12:28;971.4;;;29.1;83.4
51227;BME280;42714;48.260;10.980;2023-08-12T16:17:29;971.4;;;29.1;84.6
51227;BME280;42714;48.260;10.980;2023-08-12T16:22:30;971.3;;;29.1;83.5
51227;BME280;42714;48.260;10.980;2023-08-12T16:27:31;971.4;;;29.4;81.6
51227;BME280;42714;48.260;10.980;2023-08-12T16:32:32;971.5;;;29.5;84.7
51227;BME280;42714;48.260;10.980;2023-08-12T16:37:34;971.5;;;29.5;85.1
51227;BME280;42714;48.260;10.980;2023-08-12T16:42:34;971.6;;;29.4;85.5
51227;BME280;42714;48.260;10.980;2023-08-12T16:47:35;971.6;;;29.2;90.6
51227;BME280;42714;48.260;10.980;2023-08-12T16:52:36;971.7;;;29.0;95.1
51227;BME280;42714;48.260;10.980;2023-08-12T16:57:37;971.8;;;28.9;97.5
51227;BME280;42714;48.260;10.980;2023-08-12T17:02:38;971.9;;;29.0;92.9
51227;BME280;42714;48.260;10.980;2023-08-12T17:07:39;972.0;;;29.0;82.7
51227;BME280;42714;48.260;10.980;2023-08-12T17:12:40;972.0;;;28.9;80.3
51227;BME280;42714;48.260;10.980;2023-08-12T17:17:41;972.0;;;28.9;79.1
51227;BME280;42714;48.260;10.980;2023-08-12T17:22:42;971.9;;;29.0;83.4
51227;BME280;42714;48.260;10.980;2023-08-12T17:27:43;971.9;;;28.8;94.2
51227;BME280;42714;48.260;10.980;2023-08-12T17:32:44;971.9;;;28.5;100.0
51227;BME280;42714;48.260;10.980;2023-08-12T17:37:45;972.1;;;28.3;100.0
51227;BME280;42714;48.260;10.980;2023-08-12T17:42:46;972.2;;;27.9;100.0
51227;BME280;42714;48.260;10.980;2023-08-12T17:52:48;972.3;;;27.4;100.0
51227;BME280;42714;48.260;10.980;2023-08-12T17:57:49;972.3;;;27.1;100.0
51227;BME280;42714;48.260;10.980;2023-08-12T18:02:50;972.3;;;27.0;100.0
51227;BME280;42714;48.260;10.980;2023-08-12T18:07:52;972.2;;;26.8;100.0
51227;BME280;42714;48.260;10.980;2023-08-12T18:12:52;972.2;;;26.8;100.0
51227;BME280;42714;48.260;10.980;2023-08-12T18:17:53;972.1;;;26.6;100.0
51227;BME280;42714;48.260;10.980;2023-08-12T18:22:54;972.1;;;26.5;100.0
51227;BME280;42714;48.260;10.980;2023-08-12T18:27:55;972.0;;;26.4;100.0
51227;BME280;42714;48.260;10.980;2023-08-12T18:32:56;972.2;;;26.3;100.0
51227;BME280;42714;48.260;10.980;2023-08-12T18:37:57;972.4;;;26.1;100.0
51227;BME280;42714;48.260;10.980;2023-08-12T18:42:59;972.5;;;25.9;100.0
51227;BME280;42714;48.260;10.980;2023-08-12T18:47:59;972.5;;;25.7;100.0
51227;BME280;42714;48.260;10.980;2023-08-12T18:53:00;972.4;;;25.5;100.0
51227;BME280;42714;48.260;10.980;2023-08-12T18:58:01;972.5;;;25.2;100.0
51227;BME280;42714;48.260;10.980;2023-08-12T19:03:02;972.6;;;25.1;100.0
51227;BME280;42714;48.260;10.980;2023-08-12T19:08:04;972.7;;;24.9;100.0
51227;BME280;42714;48.260;10.980;2023-08-12T19:13:05;972.8;;;24.8;100.0
51227;BME280;42714;48.260;10.980;2023-08-12T19:18:05;972.8;;;24.6;100.0
51227;BME280;42714;48.260;10.980;2023-08-12T19:23:06;972.8;;;24.6;100.0
51227;BME280;42714;48.260;10.980;2023-08-12T19:28:07;972.9;;;24.5;100.0
51227;BME280;42714;48.260;10.980;2023-08-12T19:33:08;973.0;;;24.3;100.0
51227;BME280;42714;48.260;10.980;2023-08-12T19:38:10;973.0;;;24.2;100.0
51227;BME280;42714;48.260;10.980;2023-08-12T19:43:11;973.0;;;24.0;100.0
51227;BME280;42714;48.260;10.980;2023-08-12T19:48:12;973.2;;;23.9;100.0
51227;BME280;42714;48.260;10.980;2023-08-12T19:53:13;973.3;;;23.9;100.0
51227;BME280;42714;48.260;10.980;2023-08-12T19:58:14;973.3;;;23.6;100.0
51227;BME280;42714;48.260;10.980;2023-08-12T20:03:15;973.3;;;23.1;100.0
51227;BME280;42714;48.260;10.980;2023-08-12T20:08:16;973.5;;;22.9;100.0
51227;BME280;42714;48.260;10.980;2023-08-12T20:13:17;973.5;;;22.7;100.0
51227;BME280;42714;48.260;10.980;2023-08-12T20:18:18;973.5;;;22.6;100.0
51227;BME280;42714;48.260;10.980;2023-08-12T20:23:19;973.4;;;22.6;100.0
51227;BME280;42714;48.260;10.980;2023-08-12T20:28:20;973.5;;;22.5;100.0
51227;BME280;42714;48.260;10.980;2023-08-12T20:33:21;973.6;;;22.4;100.0
51227;BME280;42714;48.260;10.980;2023-08-12T20:38:22;973.6;;;22.3;100.0
51227;BME280;42714;48.260;10.980;2023-08-12T20:43:23;973.6;;;22.1;100.0
51227;BME280;42714;48.260;10.980;2023-08-12T20:48:24;973.6;;;22.1;100.0
51227;BME280;42714;48.260;10.980;2023-08-12T20:53:25;973.6;;;22.1;100.0
51227;BME280;42714;48.260;10.980;2023-08-12T20:58:26;973.6;;;22.1;100.0
51227;BME280;42714;48.260;10.980;2023-08-12T21:03:27;973.6;;;22.1;100.0
51227;BME280;42714;48.260;10.980;2023-08-12T21:08:28;973.6;;;22.0;100.0
51227;BME280;42714;48.260;10.980;2023-08-12T21:13:29;973.6;;;21.9;100.0
51227;BME280;42714;48.260;10.980;2023-08-12T21:18:30;973.7;;;21.9;100.0
51227;BME280;42714;48.260;10.980;2023-08-12T21:23:31;973.7;;;21.9;100.0
51227;BME280;42714;48.260;10.980;2023-08-12T21:28:32;973.8;;;21.9;100.0
51227;BME280;42714;48.260;10.980;2023-08-12T21:33:33;973.8;;;21.9;100.0
51227;BME280;42714;48.260;10.980;2023-08-12T21:38:34;973.8;;;21.8;100.0
51227;BME280;42714;48.260;10.980;2023-08-12T21:43:35;973.8;;;21.8;100.0
51227;BME280;42714;48.260;10.980;2023-08-12T21:48:36;973.7;;;21.6;100.0
51227;BME280;42714;48.260;10.980;2023-08-12T21:53:37;973.8;;;21.5;100.0
51227;BME280;42714;48.260;10.980;2023-08-12T21:58:38;973.9;;;21.5;100.0
51227;BME280;42714;48.260;10.980;2023-08-12T22:03:39;973.9;;;21.4;100.0
51227;BME280;42714;48.260;10.980;2023-08-12T22:08:40;973.9;;;21.3;100.0
51227;BME280;42714;48.260;10.980;2023-08-12T22:13:41;974.0;;;21.3;100.0
51227;BME280;42714;48.260;10.980;2023-08-12T22:18:42;974.0;;;21.2;100.0
51227;BME280;42714;48.260;10.980;2023-08-12T22:23:43;974.0;;;21.1;100.0
51227;BME280;42714;48.260;10.980;2023-08-12T22:28:44;974.0;;;21.0;100.0
51227;BME280;42714;48.260;10.980;2023-08-12T22:33:45;974.0;;;20.9;100.0
51227;BME280;42714;48.260;10.980;2023-08-12T22:38:46;974.0;;;20.8;100.0
51227;BME280;42714;48.260;10.980;2023-08-12T22:43:47;974.0;;;20.8;100.0
51227;BME280;42714;48.260;10.980;2023-08-12T22:48:48;974.1;;;20.6;100.0
51227;BME280;42714;48.260;10.980;2023-08-12T22:53:49;974.1;;;20.5;100.0
51227;BME280;42714;48.260;10.980;2023-08-12T22:58:50;974.1;;;20.4;100.0
51227;BME280;42714;48.260;10.980;2023-08-12T23:03:51;974.0;;;20.3;100.0
51227;BME280;42714;48.260;10.980;2023-08-12T23:08:52;974.0;;;20.4;100.0
51227;BME280;42714;48.260;10.980;2023-08-12T23:13:53;974.0;;;20.4;100.0
51227;BME280;42714;48.260;10.980;2023-08-12T23:18:54;974.0;;;20.4;100.0
51227;BME280;42714;48.260;10.980;2023-08-12T23:23:55;974.1;;;20.3;100.0
51227;BME280;42714;48.260;10.980;2023-08-12T23:28:56;974.1;;;20.3;100.0
51227;BME280;42714;48.260;10.980;2023-08-12T23:33:57;974.2;;;20.3;100.0
51227;BME280;42714;48.260;10.980;2023-08-12T23:38:58;974.1;;;20.2;100.0
51227;BME280;42714;48.260;10.980;2023-08-12T23:43:59;974.1;;;20.0;100.0
51227;BME280;42714;48.260;10.980;2023-08-12T23:49:00;974.1;;;20.1;100.0
51227;BME280;42714;48.260;10.980;2023-08-12T23:54:01;974.1;;;20.0;100.0
51227;BME280;42714;48.260;10.980;2023-08-12T23:59:02;974.1;;;20.0;100.0
